Flight Track Log - Related Links

Times and Time Zones

All times are in EDT time to prevent confusion due to time zone crossing. See the FFT532 flight status page for this flight to view local times or setup timezone preferences in your user account.

Time Position Orientation Groundspeed Altitude Reporting Facility
EDT Latitude Longitude Course Direction KTS MPH feet Rate Location/Type
Mon 09:20:44 AM 39.8650 -104.6600 90° East 23 26  Level FlightAware ADS-B
Mon 09:24:52 AM 39.8370 -104.6420 154° Southeast 176 203 5,400 1,393 Climbing FlightAware ADS-B
Mon 09:25:24 AM 39.8130 -104.6320 162° South 189 217 6,500 1,600 Climbing FlightAware ADS-B
Mon 09:25:52 AM 39.7930 -104.6110 141° Southeast 212 244 7,000 1,038 Climbing FlightAware ADS-B
Mon 09:26:16 AM 39.7740 -104.5900 140° Southeast 238 274 7,400 1,111 Climbing FlightAware ADS-B
Mon 09:26:46 AM 39.7450 -104.5590 141° Southeast 281 323 8,000 1,345 Climbing FlightAware ADS-B
Mon 09:27:14 AM 39.7210 -104.5220 130° Southeast 310 357 8,700 2,045 Climbing FlightAware ADS-B
Mon 09:27:30 AM 39.7160 -104.4920 102° East 314 361 9,500 2,036 Climbing FlightAware ADS-B
Mon 09:28:10 AM 39.7080 -104.4140 98° East 344 396 10,600 1,571 Climbing FlightAware ADS-B
Mon 09:28:54 AM 39.6980 -104.3190 98° East 365 420 11,700 878 Climbing FlightAware ADS-B
Mon 09:29:32 AM 39.6890 -104.2380 98° East 366 421 11,800 73 Climbing FlightAware ADS-B
Mon 09:30:16 AM 39.6790 -104.1440 98° East 364 419 11,800 529 Level FlightAware ADS-B
Mon 09:31:14 AM 39.6950 -104.0220 80° East 368 423 12,700 1,408 Climbing FlightAware ADS-B
Mon 09:31:54 AM 39.7390 -103.9550 49° Northeast 378 435 14,100 2,122 Climbing FlightAware ADS-B
Mon 09:32:36 AM 39.7860 -103.8810 50° Northeast 390 449 15,600 2,036 Climbing FlightAware ADS-B
Mon 09:32:50 AM 39.7970 -103.8490 66° East 399 459 16,000 2,250 Climbing FlightAware ADS-B
Mon 09:33:32 AM 39.8060 -103.7490 83° East 397 457 17,700 2,023 Climbing FlightAware ADS-B
Mon 09:34:16 AM 39.8150 -103.6460 83° East 403 464 18,900 1,535 Climbing FlightAware ADS-B
Mon 09:34:58 AM 39.8230 -103.5450 84° East 406 467 19,900 1,786 Climbing FlightAware ADS-B
Mon 09:35:40 AM 39.8310 -103.4430 84° East 408 470 21,400 1,870 Climbing FlightAware ADS-B
Mon 09:36:15 AM 39.8390 -103.3560 83° East 418 481 22,300 1,658 Climbing FlightAware ADS-B
Mon 09:36:56 AM 39.8470 -103.2550 84° East 423 487 23,500 1,595 Climbing FlightAware ADS-B
Mon 09:37:34 AM 39.8550 -103.1550 84° East 433 498 24,400 1,500 Climbing FlightAware ADS-B
Mon 09:38:16 AM 39.8640 -103.0450 84° East 438 504 25,500 1,317 Climbing FlightAware ADS-B
Mon 09:38:56 AM 39.8720 -102.9380 84° East 449 517 26,200 1,244 Climbing FlightAware ADS-B
Mon 09:39:38 AM 39.8810 -102.8260 84° East 453 521 27,200 1,390 Climbing FlightAware ADS-B
Mon 09:40:18 AM 39.8890 -102.7180 84° East 457 526 28,100 1,286 Climbing FlightAware ADS-B
Mon 09:40:48 AM 39.8950 -102.6380 84° East 462 532 28,700 1,000 Climbing FlightAware ADS-B
Mon 09:41:30 AM 39.9040 -102.5170 84° East 473 544 29,300 951 Climbing FlightAware ADS-B
Mon 09:42:10 AM 39.9120 -102.4060 85° East 479 551 30,000 1,244 Climbing FlightAware ADS-B
Mon 09:42:52 AM 39.9210 -102.2840 84° East 479 551 31,000 1,465 Climbing FlightAware ADS-B
Mon 09:43:36 AM 39.9300 -102.1590 85° East 476 548 32,100 1,390 Climbing FlightAware ADS-B
Mon 09:44:14 AM 39.9380 -102.0480 85° East 478 550 32,900 1,308 Climbing FlightAware ADS-B
Mon 09:44:54 AM 39.9460 -101.9390 84° East 474 545 33,800 1,091 Climbing FlightAware ADS-B
Mon 09:45:31 AM 39.9520 -101.8440 85° East 478 550 34,300 957 Climbing FlightAware ADS-B
Mon 09:46:28 AM 39.9640 -101.6660 85° East 483 556 35,300 672 Climbing FlightAware ADS-B
Mon 09:47:27 AM 39.9750 -101.5120 85° East 483 556 35,600 1,063 Climbing FlightAware ADS-B
Mon 09:48:04 AM 39.9820 -101.3910 86° East 473 544 37,000 1,091 Climbing FlightAware ADS-B
Mon 09:48:44 AM 39.9890 -101.2950 85° East 473 544 37,000  Level FlightAware ADS-B
Mon 09:49:19 AM 39.9940 -101.2100 86° East 473 544 37,000  Level FlightAware ADS-B
Mon 09:50:08 AM 40.0020 -101.0910 85° East 473 544 37,000  Level FlightAware ADS-B
Mon 09:50:45 AM 40.0080 -101.0020 85° East 473 544 37,000  Level FlightAware ADS-B
Mon 09:51:31 AM 40.0160 -100.8910 85° East 473 544 37,000  Level FlightAware ADS-B
Mon 09:52:09 AM 40.0220 -100.7990 85° East 473 544 37,000  Level FlightAware ADS-B
Mon 09:53:09 AM 40.0320 -100.6530 85° East 473 544 37,000  Level FlightAware ADS-B
Mon 09:53:58 AM 40.0400 -100.5350 85° East 473 544 37,000  Level FlightAware ADS-B
Mon 09:54:32 AM 40.0450 -100.4530 85° East 473 544 37,000  Level FlightAware ADS-B
Mon 09:55:34 AM 40.0550 -100.3020 85° East 473 544 37,000  Level FlightAware ADS-B
Mon 09:56:24 AM 40.0630 -100.1810 85° East 473 544 37,000  Level FlightAware ADS-B
Mon 09:57:01 AM 40.0690 -100.0920 85° East 473 544 37,000  Level FlightAware ADS-B
Mon 09:57:40 AM 40.0750 -99.9970 85° East 473 544 37,000 -54 Level FlightAware ADS-B
Mon 09:58:53 AM 40.0853 -99.5589 85° East 465 535 36,900  Descending Denver Center
Mon 10:04:34 AM 40.1280 -98.6110 85° East 465 535 37,000 16 Climbing FlightAware ADS-B
Mon 10:05:11 AM 40.1330 -98.5230 86° East 465 535 37,000  Level FlightAware ADS-B
Mon 10:05:56 AM 40.1380 -98.3740 87° East 465 535 37,000  Level FlightAware ADS-B
Mon 10:06:37 AM 40.1420 -98.2760 87° East 465 535 37,000  Level FlightAware ADS-B
Mon 10:07:34 AM 40.1480 -98.0990 87° East 462 532 37,000  Level FlightAware ADS-B
Mon 10:08:15 AM 40.1520 -97.9850 87° East 460 529 37,000 -72 Level FlightAware ADS-B
Mon 10:08:57 AM 40.1560 -97.8700 87° East 460 529 36,900 -70 Descending FlightAware ADS-B
Mon 10:09:41 AM 40.1600 -97.7470 88° East 461 531 36,900 71 Level FlightAware ADS-B
Mon 10:10:21 AM 40.1640 -97.6360 87° East 463 533 37,000 53 Climbing FlightAware ADS-B
Mon 10:11:35 AM 40.1700 -97.4320 88° East 464 534 37,000  Level FlightAware ADS-B
Mon 10:12:15 AM 40.1730 -97.3150 88° East 462 532 37,000  Level FlightAware ADS-B
Mon 10:12:55 AM 40.1770 -97.2030 87° East 460 529 37,000  Level FlightAware ADS-B
Mon 10:13:39 AM 40.1800 -97.0830 88° East 460 529 37,000 -70 Level FlightAware ADS-B
Mon 10:14:21 AM 40.1830 -96.9680 88° East 459 528 36,900 -77 Descending FlightAware ADS-B
Mon 10:14:57 AM 40.1860 -96.8650 88° East 459 528 36,900 71 Level FlightAware ADS-B
Mon 10:15:45 AM 40.1890 -96.7320 88° East 460 529 37,000 68 Climbing FlightAware ADS-B
Mon 10:16:25 AM 40.1910 -96.6250 89° East 459 528 37,000  Level FlightAware ADS-B
Mon 10:17:09 AM 40.1940 -96.5010 88° East 458 527 37,000  Level FlightAware ADS-B
Mon 10:17:49 AM 40.1970 -96.3910 88° East 456 525 37,000  Level FlightAware ADS-B
Mon 10:18:29 AM 40.1990 -96.2810 89° East 454 522 37,000 -70 Level FlightAware ADS-B
Mon 10:19:15 AM 40.2110 -96.1560 83° East 450 518 36,900 -68 Descending FlightAware ADS-B
Mon 10:19:57 AM 40.2310 -96.0470 76° East 450 518 36,900 71 Level FlightAware ADS-B
Mon 10:20:39 AM 40.2510 -95.9340 77° East 449 517 37,000 73 Climbing FlightAware ADS-B
Mon 10:21:19 AM 40.2710 -95.8300 76° East 449 517 37,000 -79 Level FlightAware ADS-B
Mon 10:21:55 AM 40.2880 -95.7330 77° East 449 517 36,900  Descending FlightAware ADS-B
Mon 10:22:37 AM 40.3090 -95.6220 76° East 451 519 37,000 73 Climbing FlightAware ADS-B
Mon 10:23:17 AM 40.3280 -95.5170 77° East 451 519 37,000  Level FlightAware ADS-B
Mon 10:23:59 AM 40.3480 -95.4050 77° East 450 518 37,000  Level FlightAware ADS-B
Mon 10:24:43 AM 40.3690 -95.2880 77° East 449 517 37,000  Level FlightAware ADS-B
Mon 10:25:25 AM 40.3890 -95.1770 77° East 449 517 37,000  Level FlightAware ADS-B
Mon 10:26:09 AM 40.4090 -95.0620 77° East 448 516 37,000  Level FlightAware ADS-B
Mon 10:26:51 AM 40.4290 -94.9510 77° East 447 514 37,000  Level FlightAware ADS-B
Mon 10:27:30 AM 40.4460 -94.8500 77° East 446 513 37,000 -73 Level FlightAware ADS-B
Mon 10:28:13 AM 40.4660 -94.7360 77° East 446 513 36,900 -71 Descending FlightAware ADS-B
Mon 10:28:55 AM 40.4850 -94.6280 77° East 447 514 36,900  Level FlightAware ADS-B
Mon 10:29:31 AM 40.5020 -94.5290 77° East 449 517 36,900 73 Level FlightAware ADS-B
Mon 10:30:17 AM 40.5220 -94.4110 77° East 451 519 37,000 73 Climbing FlightAware ADS-B
Mon 10:30:53 AM 40.5400 -94.3090 77° East 453 521 37,000  Level FlightAware ADS-B
Mon 10:31:33 AM 40.5570 -94.2040 78° East 453 521 37,000  Level FlightAware ADS-B
Mon 10:32:15 AM 40.5770 -94.0890 77° East 453 521 37,000  Level FlightAware ADS-B
Mon 10:32:51 AM 40.5930 -93.9920 78° East 453 521 37,000  Level FlightAware ADS-B
Mon 10:33:48 AM 40.6150 -93.8510 78° East 454 522 37,000  Level FlightAware ADS-B
Mon 10:34:29 AM 40.6320 -93.7280 80° East 454 522 37,000  Level FlightAware ADS-B
Mon 10:35:13 AM 40.6500 -93.6090 79° East 454 522 37,000  Level FlightAware ADS-B
Mon 10:35:58 AM 40.6670 -93.4860 80° East 452 520 37,000 -73 Level FlightAware ADS-B
Mon 10:36:35 AM 40.6820 -93.3870 79° East 452 520 36,900  Descending FlightAware ADS-B
Mon 10:37:16 AM 40.6970 -93.2780 80° East 453 521 37,000 75 Climbing FlightAware ADS-B
Mon 10:37:55 AM 40.7130 -93.1710 79° East 453 521 37,000  Level FlightAware ADS-B
Mon 10:38:35 AM 40.7280 -93.0640 79° East 452 520 37,000  Level FlightAware ADS-B
Mon 10:39:15 AM 40.7420 -92.9610 80° East 454 522 37,000  Level FlightAware ADS-B
Mon 10:39:49 AM 40.7550 -92.8630 80° East 455 524 37,000  Level FlightAware ADS-B
Mon 10:40:34 AM 40.7730 -92.7390 79° East 455 524 37,000  Level FlightAware ADS-B
Mon 10:41:16 AM 40.7880 -92.6240 80° East 456 525 37,000  Level FlightAware ADS-B
Mon 10:42:01 AM 40.8040 -92.5070 80° East 455 524 37,000  Level FlightAware ADS-B
Mon 10:42:41 AM 40.8190 -92.3960 80° East 455 524 37,000 -357 Level FlightAware ADS-B
Mon 10:43:25 AM 40.8350 -92.2760 80° East 456 525 36,500 -889 Descending FlightAware ADS-B
Mon 10:44:02 AM 40.8480 -92.1770 80° East 461 531 35,800 -1,149 Descending FlightAware ADS-B
Mon 10:44:59 AM 40.8700 -92.0110 80° East 461 531 34,700 -1,107 Descending FlightAware ADS-B
Mon 10:45:45 AM 40.8860 -91.8870 80° East 453 521 33,900 -1,079 Descending FlightAware ADS-B
Mon 10:46:28 AM 40.9010 -91.7690 80° East 450 518 33,100 -1,098 Descending FlightAware ADS-B
Mon 10:47:07 AM 40.9140 -91.6660 80° East 442 509 32,400 -815 Descending FlightAware ADS-B
Mon 10:47:49 AM 40.9290 -91.5520 80° East 435 501 32,000 -279 Descending FlightAware ADS-B
Mon 10:48:33 AM 40.9430 -91.4380 81° East 436 502 32,000  Level FlightAware ADS-B
Mon 10:49:10 AM 40.9560 -91.3410 80° East 436 502 32,000 -370 Level FlightAware ADS-B
Mon 10:49:54 AM 40.9700 -91.2250 81° East 434 499 31,500 -1,448 Descending FlightAware ADS-B
Mon 10:50:37 AM 40.9840 -91.1110 81° East 438 504 29,900 -2,268 Descending FlightAware ADS-B
Mon 10:51:16 AM 40.9960 -91.0120 81° East 440 506 28,400 -2,338 Descending FlightAware ADS-B
Mon 10:51:54 AM 41.0090 -90.9060 81° East 440 506 26,900 -2,169 Descending FlightAware ADS-B
Mon 10:52:39 AM 41.0230 -90.7890 81° East 433 498 25,400 -2,024 Descending FlightAware ADS-B
Mon 10:53:17 AM 41.0350 -90.6880 81° East 428 493 24,100 -1,111 Descending FlightAware ADS-B
Mon 10:54:00 AM 41.0480 -90.5800 81° East 422 486 23,900 -732 Descending FlightAware ADS-B
Mon 10:54:39 AM 41.0600 -90.4810 81° East 425 489 23,100 -621 Descending FlightAware ADS-B
Mon 10:55:27 AM 41.0740 -90.3550 82° East 422 486 23,000 -72 Descending FlightAware ADS-B
Mon 10:56:02 AM 41.0830 -90.2760 81° East 418 481 23,000  Level FlightAware ADS-B
Mon 10:56:47 AM 41.0970 -90.1590 81° East 415 478 23,000  Level FlightAware ADS-B
Mon 10:57:31 AM 41.1090 -90.0500 82° East 410 472 23,000 -795 Level FlightAware ADS-B
Mon 10:58:10 AM 41.1200 -89.9490 82° East 411 473 21,900 -2,000 Descending FlightAware ADS-B
Mon 10:58:55 AM 41.1330 -89.8350 81° East 411 473 20,200 -2,069 Descending FlightAware ADS-B
Mon 10:59:37 AM 41.1440 -89.7350 82° East 405 466 18,900 -1,696 Descending FlightAware ADS-B
Mon 11:00:27 AM 41.1580 -89.6110 81° East 389 448 17,600 -1,582 Descending FlightAware ADS-B
Mon 11:01:08 AM 41.1650 -89.5160 84° East 383 441 16,500 -1,518 Descending FlightAware ADS-B
Mon 11:01:50 AM 41.1780 -89.4190 80° East 373 429 15,500 -1,143 Descending FlightAware ADS-B
Mon 11:02:32 AM 41.2080 -89.3330 65° Northeast 366 421 14,900 -951 Descending FlightAware ADS-B
Mon 11:03:12 AM 41.2350 -89.2530 66° East 364 419 14,200 -1,012 Descending FlightAware ADS-B
Mon 11:03:55 AM 41.2670 -89.1620 65° Northeast 360 414 13,500 -1,071 Descending FlightAware ADS-B
Mon 11:04:36 AM 41.2940 -89.0810 66° East 358 412 12,700 -1,290 Descending FlightAware ADS-B
Mon 11:05:28 AM 41.3280 -88.9790 66° East 351 404 11,500 -1,389 Descending FlightAware ADS-B
Mon 11:06:24 AM 41.3650 -88.8700 66° East 341 392 10,200 -1,171 Descending FlightAware ADS-B
Mon 11:06:50 AM 41.3800 -88.8250 66° East 325 374 9,900 -941 Descending FlightAware ADS-B
Mon 11:07:15 AM 41.3970 -88.7760 65° Northeast 317 365 9,400 -1,294 Descending FlightAware ADS-B
Mon 11:07:41 AM 41.4120 -88.7300 66° East 318 366 8,800 -1,500 Descending FlightAware ADS-B
Mon 11:08:07 AM 41.4280 -88.6820 66° East 316 364 8,100 -1,527 Descending FlightAware ADS-B
Mon 11:08:36 AM 41.4450 -88.6310 66° East 314 361 7,400 -1,500 Descending FlightAware ADS-B
Mon 11:08:51 AM 41.4540 -88.6050 65° Northeast 313 360 7,000 -1,538 Descending FlightAware ADS-B
Mon 11:09:15 AM 41.4680 -88.5620 67° East 312 359 6,400 -1,269 Descending FlightAware ADS-B
Mon 11:09:43 AM 41.4850 -88.5110 66° East 318 366 5,900 -526 Descending FlightAware ADS-B
Mon 11:10:12 AM 41.5010 -88.4600 67° East 321 369 5,900  Level FlightAware ADS-B
Mon 11:10:43 AM 41.5190 -88.4040 67° East 319 367 5,900 -240 Level FlightAware ADS-B
Mon 11:12:42 AM 41.5590 -88.1810 76° East 317 365 5,300 -367 Descending FlightAware ADS-B
Mon 11:13:10 AM 41.5630 -88.1250 85° East 312 359 5,000 -632 Descending FlightAware ADS-B
Mon 11:13:20 AM 41.5640 -88.1080 85° East 304 350 4,900 -154 Descending FlightAware ADS-B
Mon 11:13:49 AM 41.5680 -88.0560 84° East 275 316 4,900 -421 Level FlightAware ADS-B
Mon 11:14:17 AM 41.5710 -88.0080 85° East 266 306 4,500 -720 Descending FlightAware ADS-B
Mon 11:14:39 AM 41.5740 -87.9770 83° East 264 304 4,300 -882 Descending FlightAware ADS-B
Mon 11:14:51 AM 41.5750 -87.9530 87° East 264 304 4,000 -1,167 Descending FlightAware ADS-B
Mon 11:15:15 AM 41.5780 -87.9170 84° East 260 299 3,600 -933 Descending FlightAware ADS-B
Mon 11:15:36 AM 41.5810 -87.8830 83° East 258 297 3,300 -706 Descending FlightAware ADS-B
Mon 11:16:06 AM 41.5840 -87.8350 85° East 256 295 3,000 -414 Descending FlightAware ADS-B
Mon 11:16:34 AM 41.5880 -87.7930 83° East 240 276 2,900 -111 Descending FlightAware ADS-B
Mon 11:17:00 AM 41.5910 -87.7570 84° East 214 246 2,900  Level FlightAware ADS-B
Mon 11:17:22 AM 41.5940 -87.7280 82° East 209 241 2,900  Level FlightAware ADS-B
Mon 11:17:38 AM 41.5960 -87.7100 82° East 209 241 2,900  Level FlightAware ADS-B
Mon 11:18:08 AM 41.6000 -87.6700 82° East 206 237 2,900  Level FlightAware ADS-B
Mon 11:18:38 AM 41.5920 -87.6380 108° East 188 216 2,900  Level FlightAware ADS-B
Mon 11:18:50 AM 41.5850 -87.6270 130° Southeast 189 217 2,900  Level FlightAware ADS-B
Mon 11:19:27 AM 41.5720 -87.5940 118° Southeast 207 238 2,900  Level FlightAware ADS-B
Mon 11:19:51 AM 41.5860 -87.5620 60° Northeast 209 241 2,900  Level FlightAware ADS-B
Mon 11:20:22 AM 41.6100 -87.5390 36° Northeast 204 235 2,900  Level FlightAware ADS-B
Mon 11:20:30 AM 41.6170 -87.5370 12° North 196 226 2,900  Level FlightAware ADS-B
Mon 11:20:50 AM 41.6340 -87.5440 343° North 179 206 2,900  Level FlightAware ADS-B
Mon 11:21:14 AM 41.6490 -87.5610 320° Northwest 174 200 2,900  Level FlightAware ADS-B
Mon 11:21:41 AM 41.6640 -87.5820 314° West 171 197 2,900  Level FlightAware ADS-B
Mon 11:22:10 AM 41.6790 -87.6030 314° West 175 201 2,900  Level FlightAware ADS-B
Mon 11:22:34 AM 41.6930 -87.6220 315° West 177 204 2,900 -480 Level FlightAware ADS-B
Mon 11:23:00 AM 41.7080 -87.6440 312° West 176 203 2,500 -1,050 Descending FlightAware ADS-B
Mon 11:23:14 AM 41.7170 -87.6560 315° West 175 201 2,200 -913 Descending FlightAware ADS-B
Mon 11:23:46 AM 41.7330 -87.6790 313° West 165 190 1,800 -740 Descending FlightAware ADS-B
Mon 11:24:27 AM 41.7530 -87.7060 315° West 124 143 1,300 -686 Descending FlightAware ADS-B
Mon 11:24:56 AM 41.7620 -87.7200 311° West 120 138 1,000 -632 Descending FlightAware ADS-B
Mon 11:25:24 AM 41.7750 -87.7370 316° Northwest 123 142 700 -88 Descending FlightAware ADS-B
Mon 11:26:04 AM 41.7897 -87.7600 316° Northwest 144 166 900 300 Climbing Chicago Center

Login

Don't have an account? Register now (free) for customized features, flight alerts, and more!